Time;durP1;ratioP1;P1;durP2;ratioP2;P2;SDS_P1;SDS_P2;PMS_P1;PMS_P2;Temp;Humidity;BMP_temperature;BMP_pressure;BME280_temperature;BME280_humidity;BME280_pressure;Samples;Min_cycle;Max_cycle;Signal;HPM_P1;HPM_P2
2021/09/21 00:01:16;;;;;;;4.45;2.85;;;13.50;75.20;;;;;;5054492;28;20021;-83
2021/09/21 00:03:41;;;;;;;5.43;3.08;;;13.50;75.50;;;;;;5056130;28;20053;-83
2021/09/21 00:06:07;;;;;;;3.72;2.72;;;13.50;75.50;;;;;;5056138;28;20029;-83
2021/09/21 00:08:34;;;;;;;4.55;3.10;;;13.50;75.60;;;;;;5038267;28;20025;-83
2021/09/21 00:11:01;;;;;;;7.38;3.00;;;13.50;75.60;;;;;;5055936;28;20025;-83
2021/09/21 00:13:27;;;;;;;6.28;3.35;;;13.50;75.60;;;;;;5018166;28;20025;-83
2021/09/21 00:15:54;;;;;;;9.27;3.08;;;13.50;75.70;;;;;;5018222;28;20025;-83
2021/09/21 00:18:19;;;;;;;6.70;2.75;;;13.50;75.90;;;;;;5018089;28;20428;-83
2021/09/21 00:20:45;;;;;;;4.72;3.08;;;13.50;76.20;;;;;;5034381;28;20120;-83
2021/09/21 00:23:11;;;;;;;5.30;3.25;;;13.50;76.20;;;;;;5018097;28;20167;-83
2021/09/21 00:25:37;;;;;;;6.25;3.75;;;13.50;76.10;;;;;;5018043;28;20044;-83
2021/09/21 00:28:03;;;;;;;4.22;3.13;;;13.50;76.20;;;;;;5004564;28;20045;-83
2021/09/21 00:30:30;;;;;;;5.20;3.45;;;13.50;76.20;;;;;;5017819;28;20060;-84
2021/09/21 00:33:06;;;;;;;7.32;3.03;;;13.40;76.10;;;;;;5040987;28;20102;-83
2021/09/21 00:35:34;;;;;;;3.42;2.83;;;13.40;76.30;;;;;;5055578;28;20025;-84
2021/09/21 00:38:02;;;;;;;4.25;2.60;;;13.40;76.30;;;;;;5037609;28;20434;-84
2021/09/21 00:40:29;;;;;;;5.90;3.30;;;13.40;76.30;;;;;;5037388;28;20040;-83
2021/09/21 00:42:54;;;;;;;5.10;3.40;;;13.40;76.30;;;;;;5055230;28;20021;-83
2021/09/21 00:45:25;;;;;;;7.13;3.72;;;13.40;76.50;;;;;;5055455;28;20101;-83
2021/09/21 00:47:52;;;;;;;7.13;2.97;;;13.40;76.80;;;;;;5054145;28;20017;-83
2021/09/21 00:50:18;;;;;;;7.13;3.28;;;13.40;76.70;;;;;;5055285;28;20028;-84
2021/09/21 00:52:45;;;;;;;5.30;3.17;;;13.40;76.70;;;;;;5033906;28;20530;-84
2021/09/21 00:55:12;;;;;;;6.20;3.67;;;13.40;76.70;;;;;;5033877;28;20076;-84
2021/09/21 00:57:38;;;;;;;5.05;3.15;;;13.40;76.70;;;;;;5033816;28;20474;-83
2021/09/21 01:00:10;;;;;;;8.10;3.20;;;13.40;77.30;;;;;;5035024;28;20034;-83
2021/09/21 01:02:36;;;;;;;6.93;3.10;;;13.40;77.10;;;;;;5050495;28;20025;-83
2021/09/21 01:05:03;;;;;;;4.55;3.03;;;13.30;77.00;;;;;;5054916;28;20079;-83
2021/09/21 01:07:29;;;;;;;3.45;2.80;;;13.30;77.20;;;;;;5036660;28;20047;-83
2021/09/21 01:10:10;;;;;;;3.83;2.92;;;13.30;77.40;;;;;;5054890;28;20140;-84
2021/09/21 01:12:37;;;;;;;4.55;2.95;;;13.30;77.70;;;;;;5053497;28;20061;-84
2021/09/21 01:15:05;;;;;;;4.15;2.83;;;13.30;77.70;;;;;;5054796;28;20021;-83
2021/09/21 01:17:31;;;;;;;5.55;3.03;;;13.30;77.80;;;;;;5036827;28;20071;-84
2021/09/21 01:19:57;;;;;;;4.95;2.90;;;13.30;77.90;;;;;;5053564;28;20494;-84
2021/09/21 01:22:22;;;;;;;3.90;3.10;;;13.30;78.00;;;;;;5054821;28;20052;-84
2021/09/21 01:24:48;;;;;;;4.13;2.92;;;13.30;78.10;;;;;;5037237;28;20063;-84
2021/09/21 01:27:14;;;;;;;5.88;3.38;;;13.30;78.10;;;;;;5036604;28;20505;-83
2021/09/21 01:29:40;;;;;;;6.57;3.10;;;13.30;78.00;;;;;;5054527;28;20029;-83
2021/09/21 01:32:06;;;;;;;4.18;2.90;;;13.30;78.10;;;;;;5054361;28;20025;-84
2021/09/21 01:34:35;;;;;;;9.00;3.30;;;13.30;78.20;;;;;;5054477;28;20385;-84
2021/09/21 01:37:02;;;;;;;5.40;3.40;;;13.30;78.40;;;;;;5054463;28;20024;-84
2021/09/21 01:39:28;;;;;;;8.32;3.85;;;13.30;78.40;;;;;;5053117;28;20116;-83
2021/09/21 01:41:54;;;;;;;6.07;3.13;;;13.30;78.40;;;;;;5036251;28;20120;-84
2021/09/21 01:44:20;;;;;;;7.35;3.50;;;13.30;78.40;;;;;;5054283;28;20037;-84
2021/09/21 01:46:46;;;;;;;5.32;3.17;;;13.30;78.50;;;;;;5036305;28;20020;-84
2021/09/21 01:49:15;;;;;;;8.65;3.45;;;13.30;78.60;;;;;;5054197;28;20025;-84
2021/09/21 01:51:44;;;;;;;5.57;4.03;;;13.30;78.70;;;;;;5036113;28;20032;-84
2021/09/21 01:54:22;;;;;;;5.20;3.22;;;13.20;78.70;;;;;;5036775;28;20513;-83
2021/09/21 01:59:31;;;;;;;5.43;3.63;;;13.20;79.10;;;;;;5039077;28;20060;-83
2021/09/21 02:01:57;;;;;;;5.80;3.85;;;13.20;79.20;;;;;;5035933;28;20032;-83
2021/09/21 02:04:23;;;;;;;4.35;3.70;;;13.20;79.30;;;;;;5053853;28;20033;-84
2021/09/21 02:06:49;;;;;;;5.22;3.72;;;13.20;79.20;;;;;;5052528;28;20029;-83
2021/09/21 02:09:15;;;;;;;6.05;4.13;;;13.20;79.30;;;;;;5035815;28;20025;-83
2021/09/21 02:11:42;;;;;;;6.78;3.88;;;13.10;79.00;;;;;;5019474;28;20061;-84
2021/09/21 02:14:10;;;;;;;7.25;3.92;;;13.20;79.70;;;;;;5053771;28;20094;-84
2021/09/21 02:16:36;;;;;;;5.78;3.70;;;13.20;78.90;;;;;;5019658;28;20029;-84
2021/09/21 02:19:02;;;;;;;7.25;3.53;;;13.10;78.80;;;;;;5019403;28;20125;-84
2021/09/21 02:21:28;;;;;;;5.72;3.72;;;13.10;79.00;;;;;;5053368;28;20604;-84
2021/09/21 02:23:56;;;;;;;6.38;4.18;;;13.10;79.20;;;;;;5053121;28;20052;-84
2021/09/21 02:26:21;;;;;;;6.68;3.80;;;13.10;79.60;;;;;;5053486;28;20036;-84
2021/09/21 02:28:47;;;;;;;6.35;3.80;;;13.10;79.60;;;;;;5032138;28;20030;-84
2021/09/21 02:31:13;;;;;;;6.00;3.75;;;13.10;79.60;;;;;;5041265;28;20385;-84
2021/09/21 02:33:39;;;;;;;5.22;3.72;;;13.10;79.70;;;;;;5035559;28;20147;-83
2021/09/21 02:36:06;;;;;;;7.47;3.80;;;13.10;79.80;;;;;;5035494;28;20107;-84
2021/09/21 02:38:36;;;;;;;5.30;3.50;;;13.00;80.00;;;;;;5052713;28;20028;-83
2021/09/21 02:41:03;;;;;;;4.28;3.85;;;13.00;80.30;;;;;;5031458;28;20085;-84
2021/09/21 02:43:29;;;;;;;5.22;3.75;;;13.00;80.20;;;;;;5015476;28;20548;-83
2021/09/21 02:45:56;;;;;;;6.53;3.83;;;13.00;80.20;;;;;;5034604;28;20105;-84
2021/09/21 02:48:21;;;;;;;7.00;4.15;;;13.00;80.30;;;;;;5035468;28;20021;-84
2021/09/21 02:50:47;;;;;;;5.63;3.75;;;13.00;80.40;;;;;;5035395;28;20036;-83
2021/09/21 02:53:17;;;;;;;6.45;3.92;;;13.00;80.50;;;;;;5035612;28;20041;-84
2021/09/21 02:55:42;;;;;;;7.18;4.22;;;13.00;80.60;;;;;;5034951;28;20067;-84
2021/09/21 02:58:08;;;;;;;5.45;3.58;;;13.00;80.60;;;;;;5034843;28;20032;-84
2021/09/21 03:00:34;;;;;;;8.52;3.92;;;13.00;80.70;;;;;;5035185;28;20029;-84
2021/09/21 03:03:02;;;;;;;6.75;3.80;;;13.00;80.90;;;;;;5053125;28;20029;-84
2021/09/21 03:05:34;;;;;;;6.65;3.88;;;13.00;81.10;;;;;;5052112;28;20025;-84
2021/09/21 03:08:10;;;;;;;6.43;3.80;;;13.00;81.30;;;;;;5035064;28;20111;-83
2021/09/21 03:10:54;;;;;;;7.97;3.72;;;12.90;81.40;;;;;;5053101;28;20476;-84
2021/09/21 03:18:50;;;;;;;8.82;4.10;;;12.90;81.90;;;;;;5053294;28;20401;-84
2021/09/21 03:21:16;;;;;;;6.55;4.15;;;12.90;81.90;;;;;;5034990;28;20029;-84
2021/09/21 03:23:41;;;;;;;7.05;4.70;;;12.90;81.90;;;;;;5051446;28;20021;-84
2021/09/21 03:26:07;;;;;;;11.18;7.32;;;12.90;82.00;;;;;;5035111;28;20413;-84
2021/09/21 03:28:33;;;;;;;18.00;13.15;;;13.00;82.20;;;;;;5052826;28;20037;-84
2021/09/21 03:30:59;;;;;;;22.92;16.50;;;13.00;82.00;;;;;;5034961;28;20071;-84
2021/09/21 03:33:25;;;;;;;34.58;24.85;;;13.00;81.90;;;;;;5034828;28;20033;-83
2021/09/21 03:35:51;;;;;;;40.20;28.33;;;13.00;81.80;;;;;;5036419;28;20119;-84
2021/09/21 03:38:16;;;;;;;73.70;53.30;;;13.00;81.80;;;;;;5056226;28;20040;-84
2021/09/21 03:40:42;;;;;;;85.88;54.78;;;13.00;81.80;;;;;;5038450;28;20478;-84
2021/09/21 03:43:08;;;;;;;88.82;59.72;;;12.90;81.90;;;;;;5055275;28;20486;-84
2021/09/21 03:45:33;;;;;;;92.22;62.72;;;12.90;82.00;;;;;;5054002;28;20490;-84
2021/09/21 03:47:59;;;;;;;84.05;56.90;;;12.90;82.00;;;;;;5054719;28;20021;-84
2021/09/21 03:50:25;;;;;;;67.75;45.70;;;12.90;82.10;;;;;;5053855;28;20037;-84
2021/09/21 03:52:51;;;;;;;91.22;59.35;;;12.90;82.20;;;;;;5054213;28;20040;-84
2021/09/21 03:55:16;;;;;;;82.95;56.10;;;12.80;82.30;;;;;;5055926;28;20053;-83
2021/09/21 03:57:43;;;;;;;77.82;50.55;;;12.90;82.40;;;;;;5034623;28;20034;-84
2021/09/21 04:00:10;;;;;;;88.20;58.35;;;12.90;82.50;;;;;;5047115;28;20130;-83
2021/09/21 04:02:35;;;;;;;100.03;65.50;;;12.90;82.50;;;;;;5054589;28;20037;-83
2021/09/21 04:05:01;;;;;;;98.10;61.80;;;12.90;82.70;;;;;;5054622;28;20104;-84
2021/09/21 04:07:26;;;;;;;85.10;56.08;;;12.80;82.90;;;;;;5021189;28;20029;-83
2021/09/21 04:09:52;;;;;;;68.78;48.13;;;12.80;83.00;;;;;;5034302;28;20029;-84
2021/09/21 04:12:18;;;;;;;66.15;41.72;;;12.80;83.00;;;;;;5018214;28;20120;-84
2021/09/21 04:14:43;;;;;;;58.40;39.45;;;12.80;82.80;;;;;;5042664;28;20106;-83
2021/09/21 04:17:09;;;;;;;43.70;28.17;;;12.80;82.90;;;;;;5022416;28;20079;-84
2021/09/21 04:19:34;;;;;;;32.17;23.20;;;12.80;82.90;;;;;;5038015;28;20079;-84
2021/09/21 04:22:00;;;;;;;33.17;24.55;;;12.80;82.90;;;;;;5055728;28;20037;-84
2021/09/21 04:24:26;;;;;;;27.83;20.63;;;12.70;83.00;;;;;;5037873;28;20075;-84
2021/09/21 04:26:52;;;;;;;24.95;17.73;;;12.70;83.10;;;;;;5055617;28;20470;-84
2021/09/21 04:29:17;;;;;;;24.70;17.60;;;12.60;83.20;;;;;;5020951;28;20031;-84
2021/09/21 04:31:44;;;;;;;19.38;14.10;;;12.60;83.40;;;;;;5055344;28;20083;-84
2021/09/21 04:34:14;;;;;;;19.58;14.02;;;12.60;83.60;;;;;;5037442;28;20477;-84
2021/09/21 04:36:40;;;;;;;18.42;12.00;;;12.60;83.80;;;;;;5037615;28;20064;-84
2021/09/21 04:39:06;;;;;;;16.27;11.07;;;12.50;83.90;;;;;;5055201;28;20083;-84
2021/09/21 04:41:32;;;;;;;13.38;10.20;;;12.50;84.10;;;;;;5037404;28;20044;-84
2021/09/21 04:43:59;;;;;;;15.88;10.57;;;12.40;84.10;;;;;;5037512;28;20078;-84
2021/09/21 04:46:25;;;;;;;15.23;8.82;;;12.40;84.20;;;;;;5053803;28;20036;-84
2021/09/21 04:48:50;;;;;;;12.32;8.45;;;12.40;84.30;;;;;;5055309;28;20029;-83
2021/09/21 04:51:16;;;;;;;13.07;8.60;;;12.30;84.30;;;;;;5055249;28;20366;-84
2021/09/21 04:53:42;;;;;;;12.18;7.53;;;12.30;84.40;;;;;;5020877;28;20155;-84
2021/09/21 04:56:07;;;;;;;9.30;7.07;;;12.30;84.50;;;;;;5054960;28;20060;-85
2021/09/21 04:58:33;;;;;;;10.43;7.38;;;12.20;84.60;;;;;;5037350;28;20386;-84
2021/09/21 05:00:58;;;;;;;10.38;7.03;;;12.10;84.60;;;;;;5037085;28;20044;-84
2021/09/21 05:03:24;;;;;;;9.98;6.68;;;12.10;84.80;;;;;;5054005;28;20027;-84
2021/09/21 05:05:50;;;;;;;9.85;6.05;;;12.00;84.80;;;;;;5037080;28;20025;-84
2021/09/21 05:08:15;;;;;;;9.98;6.32;;;12.00;85.00;;;;;;5037105;28;20029;-84
2021/09/21 05:10:41;;;;;;;10.93;6.25;;;11.90;85.10;;;;;;5053393;28;20082;-84
2021/09/21 05:13:06;;;;;;;9.52;6.32;;;11.80;85.20;;;;;;5017254;28;20087;-84
2021/09/21 05:15:32;;;;;;;11.60;5.68;;;11.80;85.40;;;;;;5024318;28;20042;-84
2021/09/21 05:17:58;;;;;;;8.75;5.70;;;11.70;85.40;;;;;;5015394;28;20029;-83
2021/09/21 05:20:23;;;;;;;7.43;5.53;;;11.70;85.50;;;;;;5007352;28;20410;-83
2021/09/21 05:22:53;;;;;;;10.15;5.68;;;11.70;85.60;;;;;;5039238;28;20033;-84
2021/09/21 05:25:19;;;;;;;;;;;11.60;85.60;;;;;;5003848;28;20402;-83
2021/09/21 05:27:44;;;;;;;6.32;5.32;;;11.60;85.50;;;;;;5035734;28;20055;-83
2021/09/21 05:30:12;;;;;;;10.65;6.88;;;11.60;85.90;;;;;;5000463;28;20446;-83
2021/09/21 05:32:38;;;;;;;10.48;6.30;;;11.60;86.00;;;;;;5016647;28;20390;-84
2021/09/21 05:35:04;;;;;;;7.47;6.18;;;11.60;86.00;;;;;;5030898;28;20060;-83
2021/09/21 05:37:31;;;;;;;11.10;5.78;;;11.60;86.10;;;;;;5020152;28;20440;-84
2021/09/21 05:39:57;;;;;;;8.57;6.03;;;11.50;86.00;;;;;;5016471;28;20034;-84
2021/09/21 05:42:22;;;;;;;9.25;5.57;;;11.50;86.00;;;;;;5034297;28;20072;-83
2021/09/21 05:44:48;;;;;;;10.23;6.00;;;11.50;86.10;;;;;;5037143;28;20053;-84
2021/09/21 05:47:14;;;;;;;9.05;5.80;;;11.50;86.20;;;;;;5054102;28;20025;-83
2021/09/21 05:49:40;;;;;;;11.70;6.03;;;11.50;86.20;;;;;;5054171;28;20100;-83
2021/09/21 05:52:06;;;;;;;15.50;5.93;;;11.60;86.40;;;;;;5036503;28;20136;-84
2021/09/21 05:54:32;;;;;;;10.65;5.93;;;11.60;86.50;;;;;;5035768;28;20527;-84
2021/09/21 05:56:58;;;;;;;10.27;6.38;;;11.60;87.20;;;;;;5035850;28;20029;-84
2021/09/21 05:59:23;;;;;;;12.68;6.00;;;11.60;86.60;;;;;;5018697;28;20036;-84
2021/09/21 06:01:49;;;;;;;9.30;5.90;;;11.70;86.70;;;;;;5035521;28;20041;-84
2021/09/21 06:04:15;;;;;;;11.60;5.43;;;11.70;86.50;;;;;;5035921;28;20052;-85
2021/09/21 06:06:41;;;;;;;11.38;5.88;;;11.70;86.50;;;;;;5035614;28;20115;-84
2021/09/21 06:09:06;;;;;;;8.88;6.03;;;11.80;86.30;;;;;;5036043;28;20029;-84
2021/09/21 06:11:33;;;;;;;14.48;6.13;;;11.80;86.00;;;;;;5053374;28;20474;-84
2021/09/21 06:14:03;;;;;;;11.25;6.40;;;11.80;86.10;;;;;;5052256;28;20033;-84
2021/09/21 06:16:29;;;;;;;9.93;5.68;;;11.90;86.00;;;;;;5053685;28;20498;-84
2021/09/21 06:18:55;;;;;;;11.40;5.95;;;11.90;85.70;;;;;;5015845;28;20033;-84
2021/09/21 06:21:21;;;;;;;17.45;6.25;;;11.90;85.50;;;;;;5032309;28;20033;-84
2021/09/21 06:23:47;;;;;;;12.02;6.50;;;11.90;85.30;;;;;;5044148;28;20032;-84
2021/09/21 06:26:13;;;;;;;10.82;5.78;;;12.00;85.40;;;;;;5035441;28;20478;-84
2021/09/21 06:28:38;;;;;;;13.15;5.22;;;12.00;85.40;;;;;;5052310;28;20166;-84
2021/09/21 06:31:04;;;;;;;9.10;5.78;;;12.10;85.30;;;;;;5052226;28;20057;-84
2021/09/21 06:33:30;;;;;;;11.25;6.85;;;12.10;85.00;;;;;;5035355;28;20027;-85
2021/09/21 06:35:55;;;;;;;9.63;6.03;;;12.00;85.00;;;;;;5035358;28;20029;-84
2021/09/21 06:38:21;;;;;;;12.48;5.70;;;12.00;85.20;;;;;;5035257;28;20040;-84
2021/09/21 06:40:47;;;;;;;10.90;5.97;;;12.00;85.40;;;;;;5034824;28;20037;-84
2021/09/21 06:43:12;;;;;;;11.73;6.03;;;12.10;85.20;;;;;;5034475;28;20041;-84
2021/09/21 06:45:38;;;;;;;10.45;5.72;;;12.20;84.90;;;;;;5034667;28;20056;-84
2021/09/21 06:48:04;;;;;;;12.82;6.93;;;12.20;84.80;;;;;;5034324;28;20493;-84
2021/09/21 06:50:30;;;;;;;11.65;6.30;;;12.30;84.50;;;;;;5034196;28;20090;-84
2021/09/21 06:52:56;;;;;;;11.77;5.88;;;12.40;84.30;;;;;;5034701;28;20036;-84
2021/09/21 06:55:21;;;;;;;11.43;6.68;;;12.50;84.10;;;;;;5034697;28;20057;-85
2021/09/21 06:57:53;;;;;;;11.73;6.13;;;12.60;83.70;;;;;;5034013;28;20035;-85
2021/09/21 07:00:20;;;;;;;10.52;6.78;;;12.70;83.20;;;;;;5034624;28;20075;-84
2021/09/21 07:02:48;;;;;;;12.70;6.60;;;12.70;83.10;;;;;;5052619;28;20088;-83
2021/09/21 07:05:14;;;;;;;11.88;5.95;;;12.80;83.00;;;;;;5052265;28;20055;-83
2021/09/21 07:07:49;;;;;;;8.38;6.15;;;12.90;83.00;;;;;;5052836;28;20025;-83
2021/09/21 07:10:17;;;;;;;15.60;6.32;;;13.10;82.80;;;;;;5037158;28;20410;-83
2021/09/21 07:12:43;;;;;;;14.30;6.90;;;13.20;82.40;;;;;;5055961;28;20428;-85
2021/09/21 07:15:11;;;;;;;14.77;7.25;;;13.30;82.10;;;;;;5054943;28;20386;-85
2021/09/21 07:17:36;;;;;;;12.57;6.57;;;13.50;81.50;;;;;;5038451;28;20025;-86
2021/09/21 07:20:04;;;;;;;13.32;7.05;;;13.60;81.20;;;;;;5038270;28;20643;-84
2021/09/21 07:22:31;;;;;;;12.80;6.65;;;13.70;81.00;;;;;;5056321;28;20106;-84
2021/09/21 07:24:57;;;;;;;14.02;6.45;;;13.80;81.40;;;;;;5031095;28;20125;-85
2021/09/21 07:27:23;;;;;;;10.90;6.90;;;13.90;80.50;;;;;;5038551;28;20062;-85
2021/09/21 07:29:49;;;;;;;13.95;6.57;;;14.00;80.10;;;;;;5037931;28;20037;-84
2021/09/21 07:32:15;;;;;;;12.98;6.57;;;14.10;79.80;;;;;;5037841;28;20065;-84
2021/09/21 07:34:40;;;;;;;10.82;6.95;;;14.30;79.50;;;;;;5037756;28;20120;-84
2021/09/21 07:37:08;;;;;;;9.85;6.53;;;14.40;79.10;;;;;;5037281;28;20064;-84
2021/09/21 07:39:34;;;;;;;16.80;7.23;;;14.60;78.70;;;;;;5037214;28;20025;-84
2021/09/21 07:42:00;;;;;;;11.27;6.57;;;14.70;78.00;;;;;;5054514;28;20037;-84
2021/09/21 07:44:25;;;;;;;8.25;6.38;;;14.80;77.50;;;;;;5053988;28;20461;-85
2021/09/21 07:46:51;;;;;;;10.75;7.00;;;14.90;77.20;;;;;;5029301;28;20029;-84
2021/09/21 07:49:17;;;;;;;11.82;6.70;;;15.00;77.00;;;;;;5018488;28;20025;-85
2021/09/21 07:51:44;;;;;;;13.85;6.78;;;15.20;76.70;;;;;;5018125;28;20556;-84
2021/09/21 07:54:09;;;;;;;11.85;7.00;;;15.30;75.30;;;;;;5014903;28;20407;-84
2021/09/21 07:56:35;;;;;;;12.38;6.72;;;15.30;75.10;;;;;;5031535;28;20030;-84
2021/09/21 07:59:03;;;;;;;13.93;6.85;;;15.40;74.80;;;;;;5014975;28;20030;-83
2021/09/21 08:01:29;;;;;;;9.63;5.80;;;15.50;74.90;;;;;;5031191;28;20100;-84
2021/09/21 08:03:56;;;;;;;11.40;5.82;;;15.60;74.40;;;;;;5016237;28;20025;-84
2021/09/21 08:06:23;;;;;;;7.55;5.72;;;15.70;73.00;;;;;;4998132;28;20479;-84
2021/09/21 08:08:48;;;;;;;12.70;6.00;;;15.90;72.90;;;;;;5013987;28;20490;-84
2021/09/21 08:11:14;;;;;;;9.02;5.47;;;16.00;72.40;;;;;;5028493;28;20033;-84
2021/09/21 08:13:40;;;;;;;10.25;5.22;;;16.10;71.40;;;;;;5033963;28;20037;-84
2021/09/21 08:16:06;;;;;;;9.48;5.90;;;16.20;71.10;;;;;;5034123;28;20037;-84
2021/09/21 08:18:32;;;;;;;9.95;4.90;;;16.30;70.10;;;;;;5033972;28;20056;-84
2021/09/21 08:20:57;;;;;;;9.50;5.43;;;16.30;69.30;;;;;;5033040;28;20033;-84
2021/09/21 08:23:23;;;;;;;10.43;4.97;;;16.40;69.60;;;;;;5033651;28;20097;-83
2021/09/21 08:25:49;;;;;;;8.68;5.43;;;16.50;69.10;;;;;;5016815;28;20394;-84
2021/09/21 08:28:14;;;;;;;12.77;5.97;;;16.60;67.60;;;;;;5033500;28;20029;-84
2021/09/21 08:30:40;;;;;;;7.85;5.00;;;16.60;66.90;;;;;;5033879;28;20493;-84
2021/09/21 08:33:06;;;;;;;9.70;5.18;;;16.70;67.50;;;;;;5034860;28;20033;-84
2021/09/21 08:35:31;;;;;;;9.80;4.30;;;16.70;67.20;;;;;;5013475;28;20037;-84
2021/09/21 08:37:58;;;;;;;7.43;4.40;;;16.80;66.40;;;;;;5014736;28;20502;-83
2021/09/21 08:40:24;;;;;;;5.55;3.80;;;16.90;64.90;;;;;;5034561;28;20033;-84
2021/09/21 08:42:50;;;;;;;5.75;3.58;;;17.00;63.90;;;;;;5034748;28;20030;-84
2021/09/21 08:45:15;;;;;;;5.85;3.35;;;17.00;63.70;;;;;;5023619;28;20120;-85
2021/09/21 08:47:41;;;;;;;5.20;3.42;;;17.10;62.90;;;;;;5033094;28;20120;-85
2021/09/21 08:50:09;;;;;;;6.35;3.70;;;17.10;62.70;;;;;;5034908;28;20104;-81
2021/09/21 08:52:40;;;;;;;5.65;3.47;;;17.20;62.60;;;;;;5049719;28;20025;-80
2021/09/21 08:55:08;;;;;;;6.78;3.10;;;17.30;61.40;;;;;;5033206;28;20054;-80
2021/09/21 08:57:35;;;;;;;5.03;2.55;;;17.30;61.60;;;;;;5013462;28;20099;-80
2021/09/21 09:00:01;;;;;;;5.25;2.75;;;17.40;61.40;;;;;;4997704;28;20124;-80
2021/09/21 09:02:27;;;;;;;5.70;2.67;;;17.50;61.20;;;;;;5017089;28;20124;-80
2021/09/21 09:05:03;;;;;;;5.30;2.92;;;17.70;60.30;;;;;;5017093;28;20029;-80
2021/09/21 09:07:35;;;;;;;7.28;3.05;;;17.70;59.30;;;;;;5034418;28;20045;-80
2021/09/21 09:10:03;;;;;;;4.60;2.70;;;17.70;58.10;;;;;;5034387;28;20033;-80
2021/09/21 09:12:34;;;;;;;5.57;2.63;;;17.80;58.30;;;;;;5034326;28;20036;-80
2021/09/21 09:15:13;;;;;;;7.97;2.65;;;17.90;59.00;;;;;;5032544;28;20034;-80
2021/09/21 09:17:39;;;;;;;2.72;1.77;;;18.00;58.00;;;;;;5033059;28;20053;-81
2021/09/21 09:20:07;;;;;;;3.80;2.17;;;18.00;56.10;;;;;;5032941;28;20093;-80
2021/09/21 09:22:32;;;;;;;5.70;2.40;;;18.00;56.10;;;;;;5032591;28;20033;-80
2021/09/21 09:25:05;;;;;;;4.80;2.08;;;18.10;56.40;;;;;;5032501;28;20063;-80
2021/09/21 09:27:39;;;;;;;5.93;2.50;;;18.20;56.60;;;;;;5049041;28;20021;-80
2021/09/21 09:30:11;;;;;;;5.72;2.38;;;18.20;56.20;;;;;;5031752;28;20048;-80
2021/09/21 09:32:45;;;;;;;2.15;1.83;;;18.30;54.90;;;;;;5031637;28;20030;-81
2021/09/21 09:35:20;;;;;;;3.80;1.98;;;18.30;53.60;;;;;;5032375;28;20021;-81
2021/09/21 09:37:46;;;;;;;3.80;2.08;;;18.30;53.80;;;;;;5028659;28;20030;-81
2021/09/21 09:40:11;;;;;;;4.15;2.30;;;18.30;53.80;;;;;;5031915;28;20030;-81
2021/09/21 09:42:45;;;;;;;4.05;2.33;;;18.40;53.80;;;;;;5031887;28;20175;-81
2021/09/21 09:45:11;;;;;;;3.53;2.45;;;18.40;54.30;;;;;;5022270;28;20033;-81
2021/09/21 09:47:48;;;;;;;3.08;2.40;;;18.40;54.80;;;;;;5042270;28;20037;-81
2021/09/21 09:50:16;;;;;;;5.45;1.90;;;18.50;54.30;;;;;;5040479;28;20036;-82
2021/09/21 09:52:42;;;;;;;6.53;2.30;;;18.60;53.80;;;;;;5027086;28;20509;-81
2021/09/21 09:55:08;;;;;;;4.18;2.10;;;18.60;53.40;;;;;;5024257;28;20045;-81
2021/09/21 09:57:39;;;;;;;4.07;1.70;;;18.70;53.60;;;;;;5012459;28;20029;-86
2021/09/21 10:00:05;;;;;;;2.40;1.58;;;18.70;53.10;;;;;;5017067;28;20025;-87
2021/09/21 10:02:31;;;;;;;2.67;1.55;;;18.80;52.30;;;;;;5031185;28;20095;-86
2021/09/21 10:04:57;;;;;;;2.40;2.05;;;18.70;52.50;;;;;;5027868;28;20033;-86
2021/09/21 10:07:23;;;;;;;2.20;1.52;;;18.80;52.60;;;;;;5032197;28;20029;-87
2021/09/21 10:09:50;;;;;;;2.03;1.63;;;18.90;53.00;;;;;;5033709;28;20075;-87
2021/09/21 10:12:16;;;;;;;2.65;1.77;;;19.00;52.20;;;;;;5016014;28;20036;-86
2021/09/21 10:14:41;;;;;;;4.30;1.83;;;19.10;50.90;;;;;;5016074;28;20033;-86
2021/09/21 10:17:07;;;;;;;2.28;1.50;;;19.10;50.50;;;;;;5032481;28;20401;-87
2021/09/21 10:19:35;;;;;;;2.75;1.50;;;19.10;50.90;;;;;;5012553;28;20440;-87
2021/09/21 10:22:01;;;;;;;2.88;1.65;;;19.10;51.00;;;;;;5006034;28;20441;-87
2021/09/21 10:24:49;;;;;;;4.50;1.75;;;19.10;50.40;;;;;;5032609;28;20026;-87
2021/09/21 10:27:20;;;;;;;2.77;1.67;;;19.10;49.60;;;;;;5033777;28;20036;-87
2021/09/21 10:30:00;;;;;;;2.28;1.55;;;19.00;49.90;;;;;;5033367;28;20089;-82
2021/09/21 10:32:26;;;;;;;5.70;2.30;;;19.00;49.60;;;;;;5015453;28;20029;-81
2021/09/21 10:34:52;;;;;;;4.38;1.80;;;19.10;50.70;;;;;;5032283;28;20390;-82
2021/09/21 10:37:20;;;;;;;3.65;1.77;;;19.10;50.30;;;;;;5015424;28;20037;-82
2021/09/21 10:39:46;;;;;;;3.65;2.28;;;19.10;50.70;;;;;;5028316;28;20030;-82
2021/09/21 10:42:13;;;;;;;2.97;1.80;;;19.10;50.90;;;;;;4998764;28;20102;-82
2021/09/21 10:45:00;;;;;;;4.43;2.05;;;19.20;50.40;;;;;;5011850;28;20080;-83
2021/09/21 10:47:28;;;;;;;3.90;1.85;;;19.20;50.10;;;;;;5012150;28;20101;-83
2021/09/21 10:50:13;;;;;;;5.75;1.95;;;19.20;50.40;;;;;;5014366;28;20053;-83
2021/09/21 10:52:39;;;;;;;4.07;1.92;;;19.30;51.30;;;;;;5031737;28;20037;-83
2021/09/21 10:55:08;;;;;;;5.80;2.10;;;19.40;51.70;;;;;;5044084;28;20087;-83
2021/09/21 10:57:44;;;;;;;4.15;1.85;;;19.50;50.30;;;;;;5035178;28;20028;-83
2021/09/21 11:00:11;;;;;;;4.10;1.92;;;19.50;50.30;;;;;;5034970;28;20032;-83
2021/09/21 11:02:39;;;;;;;4.28;2.47;;;19.60;50.30;;;;;;5051461;28;20029;-84
2021/09/21 11:05:08;;;;;;;3.88;2.10;;;19.70;50.00;;;;;;5035579;28;20025;-84
2021/09/21 11:07:36;;;;;;;5.75;2.40;;;19.70;50.40;;;;;;5035131;28;20032;-84
2021/09/21 11:10:04;;;;;;;4.82;1.92;;;19.80;50.00;;;;;;5035155;28;20035;-84
2021/09/21 11:12:30;;;;;;;3.83;1.92;;;19.80;50.00;;;;;;5035174;28;20041;-84
2021/09/21 11:14:58;;;;;;;2.10;1.77;;;19.90;50.60;;;;;;5030392;28;20032;-84
2021/09/21 11:17:26;;;;;;;2.58;1.60;;;19.90;50.30;;;;;;5015726;28;20083;-84
2021/09/21 11:19:56;;;;;;;5.63;2.13;;;20.00;50.30;;;;;;5032890;28;20044;-83
2021/09/21 11:22:27;;;;;;;2.05;1.65;;;20.00;49.60;;;;;;5029517;28;20068;-83
2021/09/21 11:25:08;;;;;;;4.55;1.63;;;20.00;49.50;;;;;;5017325;28;20044;-82
2021/09/21 11:27:36;;;;;;;2.45;1.90;;;20.10;49.30;;;;;;5051489;28;20071;-83
2021/09/21 11:30:13;;;;;;;2.13;1.50;;;20.10;48.90;;;;;;5033896;28;20163;-83
2021/09/21 11:32:42;;;;;;;2.95;1.45;;;20.10;48.60;;;;;;5015072;28;20033;-83
2021/09/21 11:35:11;;;;;;;4.72;1.67;;;20.20;49.00;;;;;;5015700;28;20482;-83
2021/09/21 11:37:40;;;;;;;2.00;1.80;;;20.20;49.00;;;;;;5049390;28;20539;-83
2021/09/21 11:40:05;;;;;;;;;;;20.40;48.90;;;;;;5052596;28;20059;-83
2021/09/21 11:42:34;;;;;;;1.92;1.48;;;20.40;49.10;;;;;;5034679;28;20003;-83
2021/09/21 11:45:02;;;;;;;2.67;1.75;;;20.40;49.10;;;;;;5034730;28;20120;-83
2021/09/21 11:47:57;;;;;;;4.57;1.50;;;20.50;48.70;;;;;;5051344;28;20056;-83
2021/09/21 11:50:27;;;;;;;3.92;1.92;;;20.40;49.50;;;;;;5026496;28;20048;-83
2021/09/21 11:52:58;;;;;;;4.18;1.90;;;20.30;49.80;;;;;;5034809;28;20040;-83
2021/09/21 11:55:27;;;;;;;2.08;1.85;;;20.30;49.60;;;;;;5052342;28;20072;-83
2021/09/21 11:57:54;;;;;;;2.15;1.80;;;20.30;48.70;;;;;;5037492;28;20053;-83
2021/09/21 12:00:27;;;;;;;2.55;1.73;;;20.30;49.10;;;;;;5056033;28;20603;-83
2021/09/21 12:02:58;;;;;;;3.35;1.90;;;20.20;49.60;;;;;;5038486;28;20079;-83
2021/09/21 12:05:25;;;;;;;4.97;2.30;;;20.20;51.50;;;;;;5038221;28;20021;-83
2021/09/21 12:07:52;;;;;;;3.40;2.20;;;20.20;49.50;;;;;;5038156;28;20048;-83
2021/09/21 12:10:18;;;;;;;3.45;1.83;;;20.30;50.30;;;;;;5038047;28;20052;-83
2021/09/21 12:12:44;;;;;;;1.88;1.60;;;20.30;49.80;;;;;;5056097;28;20075;-83
2021/09/21 12:15:12;;;;;;;4.38;1.60;;;20.40;50.00;;;;;;5038031;28;20025;-83
2021/09/21 12:17:47;;;;;;;2.78;1.50;;;20.50;50.10;;;;;;5055847;28;20021;-83
2021/09/21 12:20:12;;;;;;;3.28;1.83;;;20.50;51.00;;;;;;5055627;28;20025;-83
2021/09/21 12:22:48;;;;;;;2.03;1.67;;;20.50;50.20;;;;;;5038004;28;20036;-83
2021/09/21 12:25:15;;;;;;;4.28;1.75;;;20.50;50.20;;;;;;5055550;28;20060;-83
2021/09/21 12:27:40;;;;;;;3.45;1.45;;;20.50;48.90;;;;;;5054464;28;20090;-84
2021/09/21 12:30:08;;;;;;;4.00;1.77;;;20.50;48.70;;;;;;5037807;28;20116;-83
2021/09/21 12:32:35;;;;;;;6.05;1.80;;;20.50;48.30;;;;;;5037971;28;20035;-83
2021/09/21 12:35:07;;;;;;;2.75;1.80;;;20.50;47.40;;;;;;5055606;28;20025;-83
2021/09/21 12:37:41;;;;;;;2.45;2.15;;;20.40;48.40;;;;;;5037805;28;20394;-83
2021/09/21 12:40:13;;;;;;;8.23;4.07;;;20.40;48.20;;;;;;5037560;28;20482;-83
2021/09/21 12:42:40;;;;;;;2.28;1.63;;;20.40;49.60;;;;;;5037484;28;20024;-83
2021/09/21 12:45:08;;;;;;;1.85;1.70;;;20.50;48.80;;;;;;5037431;28;20052;-83
2021/09/21 12:47:40;;;;;;;3.13;1.70;;;20.40;48.80;;;;;;5055537;28;20075;-83
2021/09/21 12:50:16;;;;;;;2.10;1.55;;;20.40;48.00;;;;;;5037523;28;20033;-83
2021/09/21 12:52:58;;;;;;;3.08;2.00;;;20.40;49.10;;;;;;5054195;28;20501;-83